sensor_id;sensor_type;location;lat;lon;timestamp;P1;durP1;ratioP1;P2;durP2;ratioP2
34775;SDS011;20989;52.566;13.346;2022-07-15T00:01:10;0.98;;;0.98;;
34775;SDS011;20989;52.566;13.346;2022-07-15T00:04:10;1.13;;;1.00;;
34775;SDS011;20989;52.566;13.346;2022-07-15T00:07:12;0.90;;;0.75;;
34775;SDS011;20989;52.566;13.346;2022-07-15T00:10:13;0.93;;;0.93;;
34775;SDS011;20989;52.566;13.346;2022-07-15T00:13:14;2.05;;;1.08;;
34775;SDS011;20989;52.566;13.346;2022-07-15T00:16:14;1.08;;;0.80;;
34775;SDS011;20989;52.566;13.346;2022-07-15T00:19:15;0.98;;;0.88;;
34775;SDS011;20989;52.566;13.346;2022-07-15T00:22:16;1.00;;;0.80;;
34775;SDS011;20989;52.566;13.346;2022-07-15T00:25:17;0.80;;;0.80;;
34775;SDS011;20989;52.566;13.346;2022-07-15T00:28:17;1.00;;;0.90;;
34775;SDS011;20989;52.566;13.346;2022-07-15T00:31:18;0.80;;;0.80;;
34775;SDS011;20989;52.566;13.346;2022-07-15T00:34:19;0.75;;;0.75;;
34775;SDS011;20989;52.566;13.346;2022-07-15T00:37:20;0.80;;;0.80;;
34775;SDS011;20989;52.566;13.346;2022-07-15T00:40:21;1.25;;;0.95;;
34775;SDS011;20989;52.566;13.346;2022-07-15T00:43:22;0.82;;;0.82;;
34775;SDS011;20989;52.566;13.346;2022-07-15T00:46:22;0.73;;;0.73;;
34775;SDS011;20989;52.566;13.346;2022-07-15T00:49:23;0.70;;;0.70;;
34775;SDS011;20989;52.566;13.346;2022-07-15T00:52:24;1.35;;;0.77;;
34775;SDS011;20989;52.566;13.346;2022-07-15T00:55:27;0.73;;;0.73;;
34775;SDS011;20989;52.566;13.346;2022-07-15T00:58:31;0.70;;;0.70;;
34775;SDS011;20989;52.566;13.346;2022-07-15T01:01:36;0.70;;;0.70;;
34775;SDS011;20989;52.566;13.346;2022-07-15T01:04:37;0.80;;;0.75;;
34775;SDS011;20989;52.566;13.346;2022-07-15T01:07:39;1.05;;;0.65;;
34775;SDS011;20989;52.566;13.346;2022-07-15T01:10:40;0.52;;;0.52;;
34775;SDS011;20989;52.566;13.346;2022-07-15T01:13:41;0.93;;;0.73;;
34775;SDS011;20989;52.566;13.346;2022-07-15T01:16:42;2.65;;;0.80;;
34775;SDS011;20989;52.566;13.346;2022-07-15T01:19:42;0.57;;;0.57;;
34775;SDS011;20989;52.566;13.346;2022-07-15T01:22:43;0.70;;;0.70;;
34775;SDS011;20989;52.566;13.346;2022-07-15T01:25:44;0.65;;;0.65;;
34775;SDS011;20989;52.566;13.346;2022-07-15T01:28:45;0.50;;;0.50;;
34775;SDS011;20989;52.566;13.346;2022-07-15T01:31:45;0.70;;;0.70;;
34775;SDS011;20989;52.566;13.346;2022-07-15T01:34:46;0.60;;;0.60;;
34775;SDS011;20989;52.566;13.346;2022-07-15T01:37:50;1.27;;;0.70;;
34775;SDS011;20989;52.566;13.346;2022-07-15T01:40:51;0.60;;;0.60;;
34775;SDS011;20989;52.566;13.346;2022-07-15T01:43:51;0.73;;;0.73;;
34775;SDS011;20989;52.566;13.346;2022-07-15T01:46:52;0.60;;;0.60;;
34775;SDS011;20989;52.566;13.346;2022-07-15T01:49:53;0.57;;;0.57;;
34775;SDS011;20989;52.566;13.346;2022-07-15T01:52:53;0.60;;;0.60;;
34775;SDS011;20989;52.566;13.346;2022-07-15T01:55:54;1.08;;;0.70;;
34775;SDS011;20989;52.566;13.346;2022-07-15T01:58:56;0.80;;;0.80;;
34775;SDS011;20989;52.566;13.346;2022-07-15T02:01:56;0.63;;;0.63;;
34775;SDS011;20989;52.566;13.346;2022-07-15T02:04:57;1.02;;;0.80;;
34775;SDS011;20989;52.566;13.346;2022-07-15T02:07:58;0.57;;;0.57;;
34775;SDS011;20989;52.566;13.346;2022-07-15T02:10:59;0.82;;;0.70;;
34775;SDS011;20989;52.566;13.346;2022-07-15T02:13:59;0.60;;;0.60;;
34775;SDS011;20989;52.566;13.346;2022-07-15T02:17:02;0.60;;;0.60;;
34775;SDS011;20989;52.566;13.346;2022-07-15T02:20:03;0.60;;;0.60;;
34775;SDS011;20989;52.566;13.346;2022-07-15T02:23:04;0.60;;;0.60;;
34775;SDS011;20989;52.566;13.346;2022-07-15T02:26:05;0.57;;;0.57;;
34775;SDS011;20989;52.566;13.346;2022-07-15T02:29:06;1.08;;;0.60;;
34775;SDS011;20989;52.566;13.346;2022-07-15T02:32:07;0.70;;;0.70;;
34775;SDS011;20989;52.566;13.346;2022-07-15T02:35:08;1.02;;;0.80;;
34775;SDS011;20989;52.566;13.346;2022-07-15T02:38:09;1.85;;;0.80;;
34775;SDS011;20989;52.566;13.346;2022-07-15T02:41:09;0.60;;;0.60;;
34775;SDS011;20989;52.566;13.346;2022-07-15T02:44:11;0.52;;;0.52;;
34775;SDS011;20989;52.566;13.346;2022-07-15T02:47:15;0.50;;;0.50;;
34775;SDS011;20989;52.566;13.346;2022-07-15T02:50:16;0.40;;;0.40;;
34775;SDS011;20989;52.566;13.346;2022-07-15T02:53:18;1.00;;;0.65;;
34775;SDS011;20989;52.566;13.346;2022-07-15T02:56:20;0.43;;;0.43;;
34775;SDS011;20989;52.566;13.346;2022-07-15T02:59:21;0.60;;;0.60;;
34775;SDS011;20989;52.566;13.346;2022-07-15T03:02:22;0.55;;;0.55;;
34775;SDS011;20989;52.566;13.346;2022-07-15T03:05:23;0.60;;;0.60;;
34775;SDS011;20989;52.566;13.346;2022-07-15T03:08:23;0.60;;;0.52;;
34775;SDS011;20989;52.566;13.346;2022-07-15T03:11:24;0.50;;;0.50;;
34775;SDS011;20989;52.566;13.346;2022-07-15T03:14:26;0.70;;;0.50;;
34775;SDS011;20989;52.566;13.346;2022-07-15T03:17:27;1.45;;;0.60;;
34775;SDS011;20989;52.566;13.346;2022-07-15T03:20:29;0.60;;;0.50;;
34775;SDS011;20989;52.566;13.346;2022-07-15T03:23:30;0.75;;;0.60;;
34775;SDS011;20989;52.566;13.346;2022-07-15T03:26:31;0.65;;;0.65;;
34775;SDS011;20989;52.566;13.346;2022-07-15T03:29:33;0.60;;;0.60;;
34775;SDS011;20989;52.566;13.346;2022-07-15T03:32:34;0.60;;;0.60;;
34775;SDS011;20989;52.566;13.346;2022-07-15T03:35:34;0.80;;;0.52;;
34775;SDS011;20989;52.566;13.346;2022-07-15T03:38:35;0.50;;;0.50;;
34775;SDS011;20989;52.566;13.346;2022-07-15T03:41:36;0.50;;;0.50;;
34775;SDS011;20989;52.566;13.346;2022-07-15T03:44:37;0.63;;;0.50;;
34775;SDS011;20989;52.566;13.346;2022-07-15T03:47:37;0.68;;;0.47;;
34775;SDS011;20989;52.566;13.346;2022-07-15T03:50:38;1.27;;;0.50;;
34775;SDS011;20989;52.566;13.346;2022-07-15T03:53:39;0.70;;;0.70;;
34775;SDS011;20989;52.566;13.346;2022-07-15T03:56:39;0.50;;;0.50;;
34775;SDS011;20989;52.566;13.346;2022-07-15T03:59:40;1.25;;;0.40;;
34775;SDS011;20989;52.566;13.346;2022-07-15T04:02:41;0.57;;;0.55;;
34775;SDS011;20989;52.566;13.346;2022-07-15T04:05:43;2.08;;;0.65;;
34775;SDS011;20989;52.566;13.346;2022-07-15T04:08:44;0.63;;;0.60;;
34775;SDS011;20989;52.566;13.346;2022-07-15T04:11:45;0.60;;;0.60;;
34775;SDS011;20989;52.566;13.346;2022-07-15T04:14:46;0.57;;;0.57;;
34775;SDS011;20989;52.566;13.346;2022-07-15T04:17:47;0.85;;;0.82;;
34775;SDS011;20989;52.566;13.346;2022-07-15T04:20:47;0.38;;;0.38;;
34775;SDS011;20989;52.566;13.346;2022-07-15T04:23:48;0.50;;;0.50;;
34775;SDS011;20989;52.566;13.346;2022-07-15T04:26:49;0.70;;;0.68;;
34775;SDS011;20989;52.566;13.346;2022-07-15T04:29:50;0.82;;;0.63;;
34775;SDS011;20989;52.566;13.346;2022-07-15T04:32:50;1.33;;;0.60;;
34775;SDS011;20989;52.566;13.346;2022-07-15T04:35:51;0.70;;;0.60;;
34775;SDS011;20989;52.566;13.346;2022-07-15T04:38:52;0.50;;;0.50;;
34775;SDS011;20989;52.566;13.346;2022-07-15T04:41:53;0.55;;;0.50;;
34775;SDS011;20989;52.566;13.346;2022-07-15T04:44:53;1.75;;;0.60;;
34775;SDS011;20989;52.566;13.346;2022-07-15T04:47:55;1.85;;;0.52;;
34775;SDS011;20989;52.566;13.346;2022-07-15T04:50:55;0.55;;;0.40;;
34775;SDS011;20989;52.566;13.346;2022-07-15T04:53:57;1.48;;;0.70;;
34775;SDS011;20989;52.566;13.346;2022-07-15T04:56:58;0.60;;;0.60;;
34775;SDS011;20989;52.566;13.346;2022-07-15T05:03:46;1.35;;;0.50;;
34775;SDS011;20989;52.566;13.346;2022-07-15T05:06:47;0.50;;;0.50;;
34775;SDS011;20989;52.566;13.346;2022-07-15T05:09:48;1.10;;;0.73;;
34775;SDS011;20989;52.566;13.346;2022-07-15T05:12:48;0.63;;;0.57;;
34775;SDS011;20989;52.566;13.346;2022-07-15T05:15:49;0.85;;;0.50;;
34775;SDS011;20989;52.566;13.346;2022-07-15T05:18:50;0.80;;;0.80;;
34775;SDS011;20989;52.566;13.346;2022-07-15T05:21:51;1.13;;;0.65;;
34775;SDS011;20989;52.566;13.346;2022-07-15T05:24:52;0.70;;;0.52;;
34775;SDS011;20989;52.566;13.346;2022-07-15T05:27:53;0.60;;;0.60;;
34775;SDS011;20989;52.566;13.346;2022-07-15T05:30:54;0.70;;;0.70;;
34775;SDS011;20989;52.566;13.346;2022-07-15T05:33:54;1.08;;;0.88;;
34775;SDS011;20989;52.566;13.346;2022-07-15T05:36:55;0.93;;;0.75;;
34775;SDS011;20989;52.566;13.346;2022-07-15T05:39:56;2.25;;;0.65;;
34775;SDS011;20989;52.566;13.346;2022-07-15T05:42:58;0.50;;;0.50;;
34775;SDS011;20989;52.566;13.346;2022-07-15T05:45:59;0.70;;;0.70;;
34775;SDS011;20989;52.566;13.346;2022-07-15T05:49:00;1.33;;;0.80;;
34775;SDS011;20989;52.566;13.346;2022-07-15T05:52:01;1.17;;;0.77;;
34775;SDS011;20989;52.566;13.346;2022-07-15T05:55:01;0.80;;;0.50;;
34775;SDS011;20989;52.566;13.346;2022-07-15T05:58:06;0.70;;;0.70;;
34775;SDS011;20989;52.566;13.346;2022-07-15T06:01:08;0.63;;;0.63;;
34775;SDS011;20989;52.566;13.346;2022-07-15T06:04:09;0.75;;;0.65;;
34775;SDS011;20989;52.566;13.346;2022-07-15T06:07:10;0.57;;;0.57;;
34775;SDS011;20989;52.566;13.346;2022-07-15T06:10:12;1.23;;;0.80;;
34775;SDS011;20989;52.566;13.346;2022-07-15T06:13:12;0.90;;;0.80;;
34775;SDS011;20989;52.566;13.346;2022-07-15T06:16:14;1.15;;;0.65;;
34775;SDS011;20989;52.566;13.346;2022-07-15T06:19:15;0.77;;;0.77;;
34775;SDS011;20989;52.566;13.346;2022-07-15T06:22:16;0.75;;;0.60;;
34775;SDS011;20989;52.566;13.346;2022-07-15T06:25:16;0.80;;;0.60;;
34775;SDS011;20989;52.566;13.346;2022-07-15T06:28:17;0.70;;;0.70;;
34775;SDS011;20989;52.566;13.346;2022-07-15T06:31:18;5.65;;;1.30;;
34775;SDS011;20989;52.566;13.346;2022-07-15T06:34:19;2.78;;;1.33;;
34775;SDS011;20989;52.566;13.346;2022-07-15T06:37:20;3.03;;;1.20;;
34775;SDS011;20989;52.566;13.346;2022-07-15T06:40:21;3.38;;;1.20;;
34775;SDS011;20989;52.566;13.346;2022-07-15T06:43:21;7.40;;;1.30;;
34775;SDS011;20989;52.566;13.346;2022-07-15T06:46:23;7.03;;;1.50;;
34775;SDS011;20989;52.566;13.346;2022-07-15T06:49:24;3.42;;;1.17;;
34775;SDS011;20989;52.566;13.346;2022-07-15T06:52:25;3.13;;;1.30;;
34775;SDS011;20989;52.566;13.346;2022-07-15T06:55:25;5.78;;;2.50;;
34775;SDS011;20989;52.566;13.346;2022-07-15T06:58:27;8.63;;;2.00;;
34775;SDS011;20989;52.566;13.346;2022-07-15T07:01:28;6.93;;;1.80;;
34775;SDS011;20989;52.566;13.346;2022-07-15T07:04:29;9.82;;;1.80;;
34775;SDS011;20989;52.566;13.346;2022-07-15T07:07:30;9.60;;;1.80;;
34775;SDS011;20989;52.566;13.346;2022-07-15T07:10:31;6.65;;;1.58;;
34775;SDS011;20989;52.566;13.346;2022-07-15T07:13:32;9.35;;;1.58;;
34775;SDS011;20989;52.566;13.346;2022-07-15T07:16:33;5.47;;;1.50;;
34775;SDS011;20989;52.566;13.346;2022-07-15T07:19:34;5.45;;;1.48;;
34775;SDS011;20989;52.566;13.346;2022-07-15T07:22:35;2.88;;;1.60;;
34775;SDS011;20989;52.566;13.346;2022-07-15T07:25:36;3.30;;;1.73;;
34775;SDS011;20989;52.566;13.346;2022-07-15T07:28:37;7.32;;;1.45;;
34775;SDS011;20989;52.566;13.346;2022-07-15T07:31:41;5.53;;;1.48;;
34775;SDS011;20989;52.566;13.346;2022-07-15T07:34:42;5.90;;;2.17;;
34775;SDS011;20989;52.566;13.346;2022-07-15T07:37:43;5.38;;;2.33;;
34775;SDS011;20989;52.566;13.346;2022-07-15T07:40:44;3.88;;;2.63;;
34775;SDS011;20989;52.566;13.346;2022-07-15T07:43:48;3.42;;;1.42;;
34775;SDS011;20989;52.566;13.346;2022-07-15T07:46:48;5.90;;;2.60;;
34775;SDS011;20989;52.566;13.346;2022-07-15T07:49:49;10.60;;;1.60;;
34775;SDS011;20989;52.566;13.346;2022-07-15T07:52:51;5.93;;;1.75;;
34775;SDS011;20989;52.566;13.346;2022-07-15T07:55:52;3.55;;;1.73;;
34775;SDS011;20989;52.566;13.346;2022-07-15T07:58:53;5.03;;;1.10;;
34775;SDS011;20989;52.566;13.346;2022-07-15T08:01:53;8.80;;;1.20;;
34775;SDS011;20989;52.566;13.346;2022-07-15T08:04:54;2.70;;;1.60;;
34775;SDS011;20989;52.566;13.346;2022-07-15T08:11:25;13.93;;;2.70;;
34775;SDS011;20989;52.566;13.346;2022-07-15T08:14:27;6.63;;;1.80;;
34775;SDS011;20989;52.566;13.346;2022-07-15T08:17:30;11.40;;;1.60;;
34775;SDS011;20989;52.566;13.346;2022-07-15T08:20:31;5.03;;;1.50;;
34775;SDS011;20989;52.566;13.346;2022-07-15T08:23:32;4.10;;;1.40;;
34775;SDS011;20989;52.566;13.346;2022-07-15T08:26:33;6.57;;;1.55;;
34775;SDS011;20989;52.566;13.346;2022-07-15T08:29:34;3.58;;;1.17;;
34775;SDS011;20989;52.566;13.346;2022-07-15T08:32:35;5.07;;;1.13;;
34775;SDS011;20989;52.566;13.346;2022-07-15T08:35:36;1.88;;;1.05;;
34775;SDS011;20989;52.566;13.346;2022-07-15T08:38:37;3.05;;;1.30;;
34775;SDS011;20989;52.566;13.346;2022-07-15T08:41:38;4.97;;;1.48;;
34775;SDS011;20989;52.566;13.346;2022-07-15T08:44:39;2.28;;;1.10;;
34775;SDS011;20989;52.566;13.346;2022-07-15T08:47:41;2.90;;;1.08;;
34775;SDS011;20989;52.566;13.346;2022-07-15T08:50:43;5.03;;;1.42;;
34775;SDS011;20989;52.566;13.346;2022-07-15T08:53:45;4.50;;;0.95;;
34775;SDS011;20989;52.566;13.346;2022-07-15T08:56:46;2.25;;;0.90;;
34775;SDS011;20989;52.566;13.346;2022-07-15T08:59:47;1.85;;;0.82;;
34775;SDS011;20989;52.566;13.346;2022-07-15T09:02:48;4.63;;;1.50;;
34775;SDS011;20989;52.566;13.346;2022-07-15T09:05:48;4.68;;;1.10;;
34775;SDS011;20989;52.566;13.346;2022-07-15T09:08:49;8.52;;;1.35;;
34775;SDS011;20989;52.566;13.346;2022-07-15T09:11:53;4.28;;;0.80;;
34775;SDS011;20989;52.566;13.346;2022-07-15T09:14:55;3.50;;;1.25;;
34775;SDS011;20989;52.566;13.346;2022-07-15T09:18:18;6.35;;;1.15;;
34775;SDS011;20989;52.566;13.346;2022-07-15T09:21:25;2.97;;;1.20;;
34775;SDS011;20989;52.566;13.346;2022-07-15T09:24:26;2.53;;;1.17;;
34775;SDS011;20989;52.566;13.346;2022-07-15T09:27:28;2.40;;;1.17;;
34775;SDS011;20989;52.566;13.346;2022-07-15T09:30:32;7.70;;;2.10;;
34775;SDS011;20989;52.566;13.346;2022-07-15T09:33:59;15.18;;;3.20;;
34775;SDS011;20989;52.566;13.346;2022-07-15T09:37:03;8.82;;;2.30;;
34775;SDS011;20989;52.566;13.346;2022-07-15T09:40:05;11.90;;;1.63;;
34775;SDS011;20989;52.566;13.346;2022-07-15T09:43:06;6.60;;;2.28;;
34775;SDS011;20989;52.566;13.346;2022-07-15T09:46:07;4.35;;;1.92;;
34775;SDS011;20989;52.566;13.346;2022-07-15T09:49:07;9.48;;;2.47;;
34775;SDS011;20989;52.566;13.346;2022-07-15T09:52:09;8.43;;;2.15;;
34775;SDS011;20989;52.566;13.346;2022-07-15T09:55:13;4.30;;;1.15;;
34775;SDS011;20989;52.566;13.346;2022-07-15T09:58:14;5.63;;;1.52;;
34775;SDS011;20989;52.566;13.346;2022-07-15T10:01:17;12.07;;;2.03;;
34775;SDS011;20989;52.566;13.346;2022-07-15T10:04:19;4.97;;;1.27;;
34775;SDS011;20989;52.566;13.346;2022-07-15T10:07:21;2.75;;;1.40;;
34775;SDS011;20989;52.566;13.346;2022-07-15T10:10:25;4.63;;;2.05;;
34775;SDS011;20989;52.566;13.346;2022-07-15T10:26:37;8.48;;;1.50;;
34775;SDS011;20989;52.566;13.346;2022-07-15T10:29:40;5.25;;;1.42;;
34775;SDS011;20989;52.566;13.346;2022-07-15T10:36:05;3.75;;;1.02;;
34775;SDS011;20989;52.566;13.346;2022-07-15T10:39:06;6.13;;;1.17;;
34775;SDS011;20989;52.566;13.346;2022-07-15T10:42:08;4.22;;;1.33;;
34775;SDS011;20989;52.566;13.346;2022-07-15T10:45:09;4.28;;;1.33;;
34775;SDS011;20989;52.566;13.346;2022-07-15T10:48:25;2.80;;;1.10;;
34775;SDS011;20989;52.566;13.346;2022-07-15T10:54:38;1.58;;;1.00;;
34775;SDS011;20989;52.566;13.346;2022-07-15T11:00:45;3.13;;;1.30;;
34775;SDS011;20989;52.566;13.346;2022-07-15T11:07:18;6.28;;;1.40;;
34775;SDS011;20989;52.566;13.346;2022-07-15T11:10:19;5.97;;;1.55;;
34775;SDS011;20989;52.566;13.346;2022-07-15T11:13:31;10.15;;;1.55;;
34775;SDS011;20989;52.566;13.346;2022-07-15T11:16:33;4.68;;;0.90;;
34775;SDS011;20989;52.566;13.346;2022-07-15T11:19:34;3.80;;;1.10;;
34775;SDS011;20989;52.566;13.346;2022-07-15T11:22:36;7.03;;;1.20;;
34775;SDS011;20989;52.566;13.346;2022-07-15T11:25:40;5.30;;;1.42;;
34775;SDS011;20989;52.566;13.346;2022-07-15T11:28:51;5.25;;;2.15;;
34775;SDS011;20989;52.566;13.346;2022-07-15T11:31:54;4.82;;;2.25;;
34775;SDS011;20989;52.566;13.346;2022-07-15T11:34:57;4.55;;;1.65;;
34775;SDS011;20989;52.566;13.346;2022-07-15T11:38:01;3.03;;;1.30;;
34775;SDS011;20989;52.566;13.346;2022-07-15T11:41:03;2.65;;;1.35;;
34775;SDS011;20989;52.566;13.346;2022-07-15T11:44:23;3.08;;;1.13;;
34775;SDS011;20989;52.566;13.346;2022-07-15T11:47:30;4.07;;;1.30;;
34775;SDS011;20989;52.566;13.346;2022-07-15T11:50:31;5.07;;;0.90;;
34775;SDS011;20989;52.566;13.346;2022-07-15T11:53:45;2.40;;;0.93;;
34775;SDS011;20989;52.566;13.346;2022-07-15T11:56:54;5.25;;;1.27;;
34775;SDS011;20989;52.566;13.346;2022-07-15T11:59:58;1.83;;;1.10;;
34775;SDS011;20989;52.566;13.346;2022-07-15T12:03:08;3.67;;;1.50;;
34775;SDS011;20989;52.566;13.346;2022-07-15T12:06:14;4.93;;;1.00;;
34775;SDS011;20989;52.566;13.346;2022-07-15T12:09:19;3.67;;;1.25;;
34775;SDS011;20989;52.566;13.346;2022-07-15T12:12:20;2.42;;;1.58;;
34775;SDS011;20989;52.566;13.346;2022-07-15T12:15:22;1.67;;;0.80;;
34775;SDS011;20989;52.566;13.346;2022-07-15T12:18:23;2.33;;;0.80;;
34775;SDS011;20989;52.566;13.346;2022-07-15T12:21:24;1.38;;;0.90;;
34775;SDS011;20989;52.566;13.346;2022-07-15T12:24:30;1.20;;;0.88;;
34775;SDS011;20989;52.566;13.346;2022-07-15T12:27:36;3.03;;;1.05;;
34775;SDS011;20989;52.566;13.346;2022-07-15T12:30:38;1.60;;;0.85;;
34775;SDS011;20989;52.566;13.346;2022-07-15T12:33:39;1.30;;;0.98;;
34775;SDS011;20989;52.566;13.346;2022-07-15T12:36:42;1.15;;;0.60;;
34775;SDS011;20989;52.566;13.346;2022-07-15T12:40:01;1.80;;;0.73;;
34775;SDS011;20989;52.566;13.346;2022-07-15T12:43:03;2.47;;;0.63;;
34775;SDS011;20989;52.566;13.346;2022-07-15T12:46:03;1.73;;;1.17;;
34775;SDS011;20989;52.566;13.346;2022-07-15T12:49:04;3.30;;;0.98;;
34775;SDS011;20989;52.566;13.346;2022-07-15T12:52:20;1.83;;;0.80;;
34775;SDS011;20989;52.566;13.346;2022-07-15T12:58:27;3.70;;;1.00;;
34775;SDS011;20989;52.566;13.346;2022-07-15T13:01:28;1.40;;;0.90;;
34775;SDS011;20989;52.566;13.346;2022-07-15T13:04:29;2.13;;;1.10;;
34775;SDS011;20989;52.566;13.346;2022-07-15T13:07:30;2.75;;;0.80;;
34775;SDS011;20989;52.566;13.346;2022-07-15T13:10:32;7.10;;;0.85;;
34775;SDS011;20989;52.566;13.346;2022-07-15T13:13:34;3.80;;;1.20;;
34775;SDS011;20989;52.566;13.346;2022-07-15T13:16:36;5.60;;;1.35;;
34775;SDS011;20989;52.566;13.346;2022-07-15T13:19:37;3.17;;;1.20;;
34775;SDS011;20989;52.566;13.346;2022-07-15T13:22:38;1.88;;;1.33;;
34775;SDS011;20989;52.566;13.346;2022-07-15T13:25:39;4.47;;;1.33;;
34775;SDS011;20989;52.566;13.346;2022-07-15T13:28:41;3.08;;;1.60;;
34775;SDS011;20989;52.566;13.346;2022-07-15T13:31:42;4.57;;;1.10;;
34775;SDS011;20989;52.566;13.346;2022-07-15T13:34:42;2.28;;;1.23;;
34775;SDS011;20989;52.566;13.346;2022-07-15T13:37:43;1.67;;;1.55;;
34775;SDS011;20989;52.566;13.346;2022-07-15T13:40:44;2.88;;;1.33;;
34775;SDS011;20989;52.566;13.346;2022-07-15T13:43:45;3.75;;;1.35;;
34775;SDS011;20989;52.566;13.346;2022-07-15T13:46:46;1.38;;;1.20;;
34775;SDS011;20989;52.566;13.346;2022-07-15T13:49:46;2.03;;;1.50;;
34775;SDS011;20989;52.566;13.346;2022-07-15T13:53:06;1.30;;;1.17;;
34775;SDS011;20989;52.566;13.346;2022-07-15T13:56:07;3.22;;;1.23;;
34775;SDS011;20989;52.566;13.346;2022-07-15T13:59:08;1.98;;;1.48;;
34775;SDS011;20989;52.566;13.346;2022-07-15T14:02:09;1.63;;;1.23;;
34775;SDS011;20989;52.566;13.346;2022-07-15T14:05:10;1.20;;;1.10;;
34775;SDS011;20989;52.566;13.346;2022-07-15T14:08:11;3.78;;;1.08;;
34775;SDS011;20989;52.566;13.346;2022-07-15T14:11:12;1.08;;;0.90;;
34775;SDS011;20989;52.566;13.346;2022-07-15T14:14:14;1.65;;;1.10;;
34775;SDS011;20989;52.566;13.346;2022-07-15T14:17:15;3.25;;;1.05;;
34775;SDS011;20989;52.566;13.346;2022-07-15T14:20:16;3.03;;;1.17;;
34775;SDS011;20989;52.566;13.346;2022-07-15T14:23:17;1.63;;;1.13;;
34775;SDS011;20989;52.566;13.346;2022-07-15T14:26:17;3.67;;;1.10;;
34775;SDS011;20989;52.566;13.346;2022-07-15T14:29:18;2.22;;;1.10;;
34775;SDS011;20989;52.566;13.346;2022-07-15T14:32:19;1.48;;;0.93;;
34775;SDS011;20989;52.566;13.346;2022-07-15T14:35:19;4.75;;;1.80;;
34775;SDS011;20989;52.566;13.346;2022-07-15T14:38:23;4.75;;;1.70;;
34775;SDS011;20989;52.566;13.346;2022-07-15T14:41:24;2.42;;;0.90;;
34775;SDS011;20989;52.566;13.346;2022-07-15T14:44:25;7.82;;;1.50;;
34775;SDS011;20989;52.566;13.346;2022-07-15T14:47:26;1.75;;;1.33;;
34775;SDS011;20989;52.566;13.346;2022-07-15T14:50:27;5.78;;;1.45;;
34775;SDS011;20989;52.566;13.346;2022-07-15T14:53:28;7.03;;;1.83;;
34775;SDS011;20989;52.566;13.346;2022-07-15T14:56:29;2.97;;;2.08;;
34775;SDS011;20989;52.566;13.346;2022-07-15T14:59:30;5.03;;;1.73;;
34775;SDS011;20989;52.566;13.346;2022-07-15T15:02:31;4.68;;;1.70;;
34775;SDS011;20989;52.566;13.346;2022-07-15T15:05:32;7.95;;;1.55;;
34775;SDS011;20989;52.566;13.346;2022-07-15T15:08:33;4.28;;;2.03;;
34775;SDS011;20989;52.566;13.346;2022-07-15T15:11:35;4.90;;;1.50;;
34775;SDS011;20989;52.566;13.346;2022-07-15T15:14:37;4.70;;;1.40;;
34775;SDS011;20989;52.566;13.346;2022-07-15T15:17:38;7.70;;;2.95;;
34775;SDS011;20989;52.566;13.346;2022-07-15T15:20:38;13.77;;;2.40;;
34775;SDS011;20989;52.566;13.346;2022-07-15T15:23:39;7.25;;;1.88;;
34775;SDS011;20989;52.566;13.346;2022-07-15T15:26:40;15.65;;;2.15;;
34775;SDS011;20989;52.566;13.346;2022-07-15T15:29:41;5.80;;;1.30;;
34775;SDS011;20989;52.566;13.346;2022-07-15T15:32:41;2.38;;;1.30;;
34775;SDS011;20989;52.566;13.346;2022-07-15T15:35:42;4.07;;;1.48;;
34775;SDS011;20989;52.566;13.346;2022-07-15T15:38:43;14.18;;;1.67;;
34775;SDS011;20989;52.566;13.346;2022-07-15T15:41:43;4.97;;;1.20;;
34775;SDS011;20989;52.566;13.346;2022-07-15T15:44:44;25.45;;;2.38;;
34775;SDS011;20989;52.566;13.346;2022-07-15T15:47:45;5.15;;;1.50;;
34775;SDS011;20989;52.566;13.346;2022-07-15T15:50:47;65.05;;;3.40;;
34775;SDS011;20989;52.566;13.346;2022-07-15T15:53:47;12.90;;;2.22;;
34775;SDS011;20989;52.566;13.346;2022-07-15T15:56:49;8.55;;;1.98;;
34775;SDS011;20989;52.566;13.346;2022-07-15T15:59:50;3.72;;;1.90;;
34775;SDS011;20989;52.566;13.346;2022-07-15T16:02:51;9.35;;;1.45;;
34775;SDS011;20989;52.566;13.346;2022-07-15T16:05:52;5.32;;;1.70;;
34775;SDS011;20989;52.566;13.346;2022-07-15T16:08:52;3.63;;;1.23;;
34775;SDS011;20989;52.566;13.346;2022-07-15T16:11:53;5.53;;;1.20;;
34775;SDS011;20989;52.566;13.346;2022-07-15T16:14:54;4.82;;;0.98;;
34775;SDS011;20989;52.566;13.346;2022-07-15T16:17:55;3.03;;;1.10;;
34775;SDS011;20989;52.566;13.346;2022-07-15T16:20:56;6.80;;;1.45;;
34775;SDS011;20989;52.566;13.346;2022-07-15T16:23:56;2.03;;;1.23;;
34775;SDS011;20989;52.566;13.346;2022-07-15T16:26:57;1.48;;;1.08;;
34775;SDS011;20989;52.566;13.346;2022-07-15T16:29:59;1.98;;;1.00;;
34775;SDS011;20989;52.566;13.346;2022-07-15T16:32:59;2.80;;;1.10;;
34775;SDS011;20989;52.566;13.346;2022-07-15T16:36:01;2.22;;;0.88;;
34775;SDS011;20989;52.566;13.346;2022-07-15T16:39:01;9.80;;;1.15;;
34775;SDS011;20989;52.566;13.346;2022-07-15T16:42:02;5.90;;;1.40;;
34775;SDS011;20989;52.566;13.346;2022-07-15T16:45:03;4.07;;;1.33;;
34775;SDS011;20989;52.566;13.346;2022-07-15T16:48:04;2.88;;;0.70;;
34775;SDS011;20989;52.566;13.346;2022-07-15T16:51:05;1.63;;;0.90;;
34775;SDS011;20989;52.566;13.346;2022-07-15T16:54:06;1.92;;;1.00;;
34775;SDS011;20989;52.566;13.346;2022-07-15T16:57:07;1.88;;;1.02;;
34775;SDS011;20989;52.566;13.346;2022-07-15T17:00:08;3.08;;;1.00;;
34775;SDS011;20989;52.566;13.346;2022-07-15T17:03:12;7.40;;;1.10;;
34775;SDS011;20989;52.566;13.346;2022-07-15T17:06:13;5.32;;;3.60;;
34775;SDS011;20989;52.566;13.346;2022-07-15T17:09:14;3.45;;;2.30;;
34775;SDS011;20989;52.566;13.346;2022-07-15T17:12:14;4.25;;;1.90;;
34775;SDS011;20989;52.566;13.346;2022-07-15T17:15:15;7.53;;;2.15;;
34775;SDS011;20989;52.566;13.346;2022-07-15T17:18:16;2.28;;;1.88;;
34775;SDS011;20989;52.566;13.346;2022-07-15T17:21:17;3.90;;;1.63;;
34775;SDS011;20989;52.566;13.346;2022-07-15T17:24:18;6.03;;;1.30;;
34775;SDS011;20989;52.566;13.346;2022-07-15T17:27:19;3.72;;;1.13;;
34775;SDS011;20989;52.566;13.346;2022-07-15T17:30:19;2.05;;;1.35;;
34775;SDS011;20989;52.566;13.346;2022-07-15T17:33:20;2.58;;;1.23;;
34775;SDS011;20989;52.566;13.346;2022-07-15T17:36:21;9.27;;;1.63;;
34775;SDS011;20989;52.566;13.346;2022-07-15T17:39:22;4.53;;;0.85;;
34775;SDS011;20989;52.566;13.346;2022-07-15T17:42:23;2.08;;;1.27;;
34775;SDS011;20989;52.566;13.346;2022-07-15T17:45:23;3.85;;;1.20;;
34775;SDS011;20989;52.566;13.346;2022-07-15T17:48:24;2.00;;;1.38;;
34775;SDS011;20989;52.566;13.346;2022-07-15T17:51:25;2.78;;;1.10;;
34775;SDS011;20989;52.566;13.346;2022-07-15T17:54:26;3.17;;;0.82;;
34775;SDS011;20989;52.566;13.346;2022-07-15T17:57:27;1.95;;;1.10;;
34775;SDS011;20989;52.566;13.346;2022-07-15T18:00:27;2.05;;;0.95;;
34775;SDS011;20989;52.566;13.346;2022-07-15T18:03:29;7.90;;;1.10;;
34775;SDS011;20989;52.566;13.346;2022-07-15T18:06:30;1.75;;;1.05;;
34775;SDS011;20989;52.566;13.346;2022-07-15T18:09:31;3.05;;;1.00;;
34775;SDS011;20989;52.566;13.346;2022-07-15T18:12:31;4.32;;;0.88;;
34775;SDS011;20989;52.566;13.346;2022-07-15T18:15:32;5.72;;;0.95;;
34775;SDS011;20989;52.566;13.346;2022-07-15T18:18:34;2.45;;;0.82;;
34775;SDS011;20989;52.566;13.346;2022-07-15T18:21:38;5.20;;;1.10;;
34775;SDS011;20989;52.566;13.346;2022-07-15T18:24:40;2.63;;;0.98;;
34775;SDS011;20989;52.566;13.346;2022-07-15T18:27:42;3.33;;;0.85;;
34775;SDS011;20989;52.566;13.346;2022-07-15T18:30:43;2.33;;;0.90;;
34775;SDS011;20989;52.566;13.346;2022-07-15T18:33:45;12.85;;;1.20;;